sensor_id;sensor_type;location;lat;lon;timestamp;P1;durP1;ratioP1;P2;durP2;ratioP2
13609;SDS011;6876;50.788;4.940;2023-10-19T00:01:14;5.07;;;0.90;;
13609;SDS011;6876;50.788;4.940;2023-10-19T00:04:03;2.20;;;0.80;;
13609;SDS011;6876;50.788;4.940;2023-10-19T00:06:52;1.20;;;0.50;;
13609;SDS011;6876;50.788;4.940;2023-10-19T00:09:41;2.63;;;0.83;;
13609;SDS011;6876;50.788;4.940;2023-10-19T00:12:31;1.93;;;0.80;;
13609;SDS011;6876;50.788;4.940;2023-10-19T00:15:18;4.23;;;0.77;;
13609;SDS011;6876;50.788;4.940;2023-10-19T00:18:11;1.63;;;0.60;;
13609;SDS011;6876;50.788;4.940;2023-10-19T00:21:08;2.07;;;0.80;;
13609;SDS011;6876;50.788;4.940;2023-10-19T00:24:05;4.07;;;0.90;;
13609;SDS011;6876;50.788;4.940;2023-10-19T00:26:53;1.60;;;0.80;;
13609;SDS011;6876;50.788;4.940;2023-10-19T00:29:41;2.30;;;0.73;;
13609;SDS011;6876;50.788;4.940;2023-10-19T00:32:35;2.77;;;0.93;;
13609;SDS011;6876;50.788;4.940;2023-10-19T00:35:24;3.93;;;1.10;;
13609;SDS011;6876;50.788;4.940;2023-10-19T00:38:19;3.37;;;0.90;;
13609;SDS011;6876;50.788;4.940;2023-10-19T00:41:25;2.80;;;1.00;;
13609;SDS011;6876;50.788;4.940;2023-10-19T00:44:16;3.67;;;1.10;;
13609;SDS011;6876;50.788;4.940;2023-10-19T00:47:08;1.50;;;0.93;;
13609;SDS011;6876;50.788;4.940;2023-10-19T00:49:58;3.07;;;1.17;;
13609;SDS011;6876;50.788;4.940;2023-10-19T00:52:50;2.43;;;1.10;;
13609;SDS011;6876;50.788;4.940;2023-10-19T00:55:38;4.00;;;1.00;;
13609;SDS011;6876;50.788;4.940;2023-10-19T00:58:27;2.00;;;0.90;;
13609;SDS011;6876;50.788;4.940;2023-10-19T01:01:17;3.53;;;1.00;;
13609;SDS011;6876;50.788;4.940;2023-10-19T01:04:09;4.33;;;1.03;;
13609;SDS011;6876;50.788;4.940;2023-10-19T01:06:59;3.37;;;0.83;;
13609;SDS011;6876;50.788;4.940;2023-10-19T01:09:50;2.07;;;0.90;;
13609;SDS011;6876;50.788;4.940;2023-10-19T01:12:39;3.87;;;1.03;;
13609;SDS011;6876;50.788;4.940;2023-10-19T01:15:26;2.93;;;0.97;;
13609;SDS011;6876;50.788;4.940;2023-10-19T01:18:23;4.37;;;1.17;;
13609;SDS011;6876;50.788;4.940;2023-10-19T01:21:14;4.90;;;1.00;;
13609;SDS011;6876;50.788;4.940;2023-10-19T01:24:07;3.77;;;1.10;;
13609;SDS011;6876;50.788;4.940;2023-10-19T01:26:57;5.97;;;1.20;;
13609;SDS011;6876;50.788;4.940;2023-10-19T01:29:45;3.40;;;1.20;;
13609;SDS011;6876;50.788;4.940;2023-10-19T01:32:37;6.67;;;1.20;;
13609;SDS011;6876;50.788;4.940;2023-10-19T01:35:25;3.67;;;1.03;;
13609;SDS011;6876;50.788;4.940;2023-10-19T01:38:33;3.57;;;1.10;;
13609;SDS011;6876;50.788;4.940;2023-10-19T01:41:21;2.97;;;0.83;;
13609;SDS011;6876;50.788;4.940;2023-10-19T01:44:10;1.67;;;0.73;;
13609;SDS011;6876;50.788;4.940;2023-10-19T01:46:58;4.57;;;1.10;;
13609;SDS011;6876;50.788;4.940;2023-10-19T01:49:46;4.73;;;1.00;;
13609;SDS011;6876;50.788;4.940;2023-10-19T01:52:37;4.03;;;1.00;;
13609;SDS011;6876;50.788;4.940;2023-10-19T01:55:25;5.03;;;1.00;;
13609;SDS011;6876;50.788;4.940;2023-10-19T01:58:14;3.37;;;1.27;;
13609;SDS011;6876;50.788;4.940;2023-10-19T02:01:01;2.63;;;0.90;;
13609;SDS011;6876;50.788;4.940;2023-10-19T02:03:52;3.23;;;1.30;;
13609;SDS011;6876;50.788;4.940;2023-10-19T02:06:43;5.03;;;1.20;;
13609;SDS011;6876;50.788;4.940;2023-10-19T02:09:33;3.80;;;0.97;;
13609;SDS011;6876;50.788;4.940;2023-10-19T02:12:20;5.77;;;1.57;;
13609;SDS011;6876;50.788;4.940;2023-10-19T02:15:09;5.90;;;1.20;;
13609;SDS011;6876;50.788;4.940;2023-10-19T02:17:56;3.50;;;1.03;;
13609;SDS011;6876;50.788;4.940;2023-10-19T02:20:47;4.87;;;1.30;;
13609;SDS011;6876;50.788;4.940;2023-10-19T02:23:33;6.37;;;1.20;;
13609;SDS011;6876;50.788;4.940;2023-10-19T02:26:21;3.53;;;0.90;;
13609;SDS011;6876;50.788;4.940;2023-10-19T02:29:08;8.17;;;1.40;;
13609;SDS011;6876;50.788;4.940;2023-10-19T02:31:57;2.87;;;1.10;;
13609;SDS011;6876;50.788;4.940;2023-10-19T02:34:49;4.60;;;1.30;;
13609;SDS011;6876;50.788;4.940;2023-10-19T02:37:36;4.67;;;1.40;;
13609;SDS011;6876;50.788;4.940;2023-10-19T02:40:24;4.87;;;1.50;;
13609;SDS011;6876;50.788;4.940;2023-10-19T02:43:16;4.70;;;1.20;;
13609;SDS011;6876;50.788;4.940;2023-10-19T02:46:03;5.47;;;1.33;;
13609;SDS011;6876;50.788;4.940;2023-10-19T02:48:52;5.53;;;1.40;;
13609;SDS011;6876;50.788;4.940;2023-10-19T02:51:38;6.33;;;1.40;;
13609;SDS011;6876;50.788;4.940;2023-10-19T02:54:30;5.33;;;1.50;;
13609;SDS011;6876;50.788;4.940;2023-10-19T02:57:18;7.43;;;1.27;;
13609;SDS011;6876;50.788;4.940;2023-10-19T03:00:06;4.00;;;1.20;;
13609;SDS011;6876;50.788;4.940;2023-10-19T03:02:58;7.27;;;1.33;;
13609;SDS011;6876;50.788;4.940;2023-10-19T03:05:48;7.20;;;1.40;;
13609;SDS011;6876;50.788;4.940;2023-10-19T03:08:34;3.43;;;1.33;;
13609;SDS011;6876;50.788;4.940;2023-10-19T03:11:21;5.00;;;1.60;;
13609;SDS011;6876;50.788;4.940;2023-10-19T03:14:09;6.67;;;1.63;;
13609;SDS011;6876;50.788;4.940;2023-10-19T03:16:57;7.33;;;1.97;;
13609;SDS011;6876;50.788;4.940;2023-10-19T03:19:45;4.50;;;1.50;;
13609;SDS011;6876;50.788;4.940;2023-10-19T03:22:35;3.90;;;1.20;;
13609;SDS011;6876;50.788;4.940;2023-10-19T03:25:21;6.37;;;1.40;;
13609;SDS011;6876;50.788;4.940;2023-10-19T03:28:23;5.83;;;1.60;;
13609;SDS011;6876;50.788;4.940;2023-10-19T03:31:11;4.83;;;1.73;;
13609;SDS011;6876;50.788;4.940;2023-10-19T03:34:03;7.03;;;1.90;;
13609;SDS011;6876;50.788;4.940;2023-10-19T03:36:51;10.47;;;1.90;;
13609;SDS011;6876;50.788;4.940;2023-10-19T03:39:41;6.30;;;1.70;;
13609;SDS011;6876;50.788;4.940;2023-10-19T03:42:31;5.47;;;1.80;;
13609;SDS011;6876;50.788;4.940;2023-10-19T03:45:19;7.63;;;1.67;;
13609;SDS011;6876;50.788;4.940;2023-10-19T03:48:09;9.57;;;1.97;;
13609;SDS011;6876;50.788;4.940;2023-10-19T03:50:56;5.47;;;1.80;;
13609;SDS011;6876;50.788;4.940;2023-10-19T03:53:47;6.67;;;1.70;;
13609;SDS011;6876;50.788;4.940;2023-10-19T03:56:43;8.53;;;2.20;;
13609;SDS011;6876;50.788;4.940;2023-10-19T03:59:31;8.57;;;1.83;;
13609;SDS011;6876;50.788;4.940;2023-10-19T04:02:19;6.67;;;1.80;;
13609;SDS011;6876;50.788;4.940;2023-10-19T04:05:07;5.00;;;1.70;;
13609;SDS011;6876;50.788;4.940;2023-10-19T04:07:55;6.47;;;1.70;;
13609;SDS011;6876;50.788;4.940;2023-10-19T04:10:44;5.90;;;1.80;;
13609;SDS011;6876;50.788;4.940;2023-10-19T04:13:54;7.13;;;2.00;;
13609;SDS011;6876;50.788;4.940;2023-10-19T04:16:44;8.60;;;2.00;;
13609;SDS011;6876;50.788;4.940;2023-10-19T04:19:34;7.03;;;1.77;;
13609;SDS011;6876;50.788;4.940;2023-10-19T04:22:21;5.93;;;1.90;;
13609;SDS011;6876;50.788;4.940;2023-10-19T04:25:09;7.33;;;1.83;;
13609;SDS011;6876;50.788;4.940;2023-10-19T04:27:58;7.70;;;1.63;;
13609;SDS011;6876;50.788;4.940;2023-10-19T04:30:47;8.40;;;1.67;;
13609;SDS011;6876;50.788;4.940;2023-10-19T04:33:35;9.90;;;2.07;;
13609;SDS011;6876;50.788;4.940;2023-10-19T04:36:22;8.87;;;2.17;;
13609;SDS011;6876;50.788;4.940;2023-10-19T04:39:11;8.53;;;2.10;;
13609;SDS011;6876;50.788;4.940;2023-10-19T04:41:59;6.03;;;1.93;;
13609;SDS011;6876;50.788;4.940;2023-10-19T04:44:46;6.40;;;2.20;;
13609;SDS011;6876;50.788;4.940;2023-10-19T04:47:35;4.13;;;1.77;;
13609;SDS011;6876;50.788;4.940;2023-10-19T04:50:23;9.47;;;2.20;;
13609;SDS011;6876;50.788;4.940;2023-10-19T04:53:10;8.70;;;2.00;;
13609;SDS011;6876;50.788;4.940;2023-10-19T04:55:58;4.97;;;1.63;;
13609;SDS011;6876;50.788;4.940;2023-10-19T04:58:46;11.60;;;2.03;;
13609;SDS011;6876;50.788;4.940;2023-10-19T05:01:33;10.10;;;2.30;;
13609;SDS011;6876;50.788;4.940;2023-10-19T05:04:22;8.67;;;1.90;;
13609;SDS011;6876;50.788;4.940;2023-10-19T05:07:10;5.97;;;2.00;;
13609;SDS011;6876;50.788;4.940;2023-10-19T05:09:57;7.13;;;2.27;;
13609;SDS011;6876;50.788;4.940;2023-10-19T05:12:46;13.10;;;2.23;;
13609;SDS011;6876;50.788;4.940;2023-10-19T05:15:33;9.27;;;2.13;;
13609;SDS011;6876;50.788;4.940;2023-10-19T05:18:21;6.70;;;1.83;;
13609;SDS011;6876;50.788;4.940;2023-10-19T05:21:10;9.37;;;2.10;;
13609;SDS011;6876;50.788;4.940;2023-10-19T05:23:58;5.90;;;1.80;;
13609;SDS011;6876;50.788;4.940;2023-10-19T05:26:47;6.30;;;1.87;;
13609;SDS011;6876;50.788;4.940;2023-10-19T05:29:35;7.33;;;1.90;;
13609;SDS011;6876;50.788;4.940;2023-10-19T05:32:23;8.83;;;2.10;;
13609;SDS011;6876;50.788;4.940;2023-10-19T05:35:10;6.53;;;2.07;;
13609;SDS011;6876;50.788;4.940;2023-10-19T05:38:06;8.30;;;1.73;;
13609;SDS011;6876;50.788;4.940;2023-10-19T05:40:53;4.63;;;1.43;;
13609;SDS011;6876;50.788;4.940;2023-10-19T05:43:44;8.70;;;1.67;;
13609;SDS011;6876;50.788;4.940;2023-10-19T05:46:32;6.03;;;1.50;;
13609;SDS011;6876;50.788;4.940;2023-10-19T05:49:20;5.80;;;1.90;;
13609;SDS011;6876;50.788;4.940;2023-10-19T05:52:07;8.60;;;4.50;;
13609;SDS011;6876;50.788;4.940;2023-10-19T05:54:57;9.37;;;4.40;;
13609;SDS011;6876;50.788;4.940;2023-10-19T05:57:45;7.33;;;4.20;;
13609;SDS011;6876;50.788;4.940;2023-10-19T06:00:32;9.63;;;4.53;;
13609;SDS011;6876;50.788;4.940;2023-10-19T06:03:20;10.43;;;4.27;;
13609;SDS011;6876;50.788;4.940;2023-10-19T06:06:07;8.00;;;4.23;;
13609;SDS011;6876;50.788;4.940;2023-10-19T06:08:55;13.33;;;4.20;;
13609;SDS011;6876;50.788;4.940;2023-10-19T06:11:44;8.57;;;4.50;;
13609;SDS011;6876;50.788;4.940;2023-10-19T06:14:31;10.03;;;4.27;;
13609;SDS011;6876;50.788;4.940;2023-10-19T06:17:19;6.47;;;4.33;;
13609;SDS011;6876;50.788;4.940;2023-10-19T06:20:07;8.50;;;4.30;;
13609;SDS011;6876;50.788;4.940;2023-10-19T06:23:05;8.53;;;4.60;;
13609;SDS011;6876;50.788;4.940;2023-10-19T06:25:53;10.10;;;4.47;;
13609;SDS011;6876;50.788;4.940;2023-10-19T06:28:42;7.30;;;4.50;;
13609;SDS011;6876;50.788;4.940;2023-10-19T06:31:29;6.77;;;4.37;;
13609;SDS011;6876;50.788;4.940;2023-10-19T06:34:16;9.87;;;4.43;;
13609;SDS011;6876;50.788;4.940;2023-10-19T06:37:04;7.57;;;4.10;;
13609;SDS011;6876;50.788;4.940;2023-10-19T06:39:54;10.03;;;4.50;;
13609;SDS011;6876;50.788;4.940;2023-10-19T06:42:41;11.33;;;4.03;;
13609;SDS011;6876;50.788;4.940;2023-10-19T06:45:32;9.97;;;4.13;;
13609;SDS011;6876;50.788;4.940;2023-10-19T06:48:20;7.47;;;3.87;;
13609;SDS011;6876;50.788;4.940;2023-10-19T06:51:07;9.13;;;4.40;;
13609;SDS011;6876;50.788;4.940;2023-10-19T06:53:55;8.73;;;3.90;;
13609;SDS011;6876;50.788;4.940;2023-10-19T06:56:43;7.83;;;3.70;;
13609;SDS011;6876;50.788;4.940;2023-10-19T06:59:31;8.23;;;4.00;;
13609;SDS011;6876;50.788;4.940;2023-10-19T07:02:20;9.97;;;3.97;;
13609;SDS011;6876;50.788;4.940;2023-10-19T07:05:07;6.63;;;3.80;;
13609;SDS011;6876;50.788;4.940;2023-10-19T07:07:57;13.50;;;3.80;;
13609;SDS011;6876;50.788;4.940;2023-10-19T07:10:46;12.80;;;3.43;;
13609;SDS011;6876;50.788;4.940;2023-10-19T07:13:35;10.57;;;3.67;;
13609;SDS011;6876;50.788;4.940;2023-10-19T07:16:22;6.40;;;1.50;;
13609;SDS011;6876;50.788;4.940;2023-10-19T07:19:11;7.97;;;2.10;;
13609;SDS011;6876;50.788;4.940;2023-10-19T07:21:59;6.83;;;2.03;;
13609;SDS011;6876;50.788;4.940;2023-10-19T07:24:49;8.03;;;1.90;;
13609;SDS011;6876;50.788;4.940;2023-10-19T07:27:37;7.30;;;2.00;;
13609;SDS011;6876;50.788;4.940;2023-10-19T07:30:26;9.43;;;2.43;;
13609;SDS011;6876;50.788;4.940;2023-10-19T07:33:16;7.90;;;2.00;;
13609;SDS011;6876;50.788;4.940;2023-10-19T07:36:11;10.13;;;2.53;;
13609;SDS011;6876;50.788;4.940;2023-10-19T07:38:59;8.70;;;2.20;;
13609;SDS011;6876;50.788;4.940;2023-10-19T07:41:48;7.10;;;1.87;;
13609;SDS011;6876;50.788;4.940;2023-10-19T07:44:35;7.05;;;2.17;;
13609;SDS011;6876;50.788;4.940;2023-10-19T07:47:22;6.72;;;2.05;;
13609;SDS011;6876;50.788;4.940;2023-10-19T07:50:10;7.95;;;2.47;;
13609;SDS011;6876;50.788;4.940;2023-10-19T07:53:03;7.47;;;2.28;;
13609;SDS011;6876;50.788;4.940;2023-10-19T07:55:50;10.85;;;2.30;;
13609;SDS011;6876;50.788;4.940;2023-10-19T07:58:38;9.60;;;2.20;;
13609;SDS011;6876;50.788;4.940;2023-10-19T08:01:27;7.85;;;2.30;;
13609;SDS011;6876;50.788;4.940;2023-10-19T08:04:14;10.25;;;2.13;;
13609;SDS011;6876;50.788;4.940;2023-10-19T08:07:02;9.05;;;2.17;;
13609;SDS011;6876;50.788;4.940;2023-10-19T08:09:51;13.02;;;2.72;;
13609;SDS011;6876;50.788;4.940;2023-10-19T08:12:39;7.90;;;2.47;;
13609;SDS011;6876;50.788;4.940;2023-10-19T08:15:28;11.48;;;2.88;;
13609;SDS011;6876;50.788;4.940;2023-10-19T08:18:16;7.35;;;2.35;;
13609;SDS011;6876;50.788;4.940;2023-10-19T08:21:04;10.10;;;2.35;;
13609;SDS011;6876;50.788;4.940;2023-10-19T08:23:52;10.63;;;2.78;;
13609;SDS011;6876;50.788;4.940;2023-10-19T08:26:42;7.73;;;2.10;;
13609;SDS011;6876;50.788;4.940;2023-10-19T08:29:31;8.85;;;2.47;;
13609;SDS011;6876;50.788;4.940;2023-10-19T08:32:20;10.60;;;2.53;;
13609;SDS011;6876;50.788;4.940;2023-10-19T08:35:08;15.43;;;2.77;;
13609;SDS011;6876;50.788;4.940;2023-10-19T08:37:56;7.60;;;2.30;;
13609;SDS011;6876;50.788;4.940;2023-10-19T08:40:44;8.55;;;2.50;;
13609;SDS011;6876;50.788;4.940;2023-10-19T08:43:33;10.32;;;2.70;;
13609;SDS011;6876;50.788;4.940;2023-10-19T08:46:22;7.85;;;2.50;;
13609;SDS011;6876;50.788;4.940;2023-10-19T08:49:10;9.73;;;2.78;;
13609;SDS011;6876;50.788;4.940;2023-10-19T08:51:58;10.02;;;2.85;;
13609;SDS011;6876;50.788;4.940;2023-10-19T08:54:49;10.90;;;2.42;;
13609;SDS011;6876;50.788;4.940;2023-10-19T08:57:37;9.38;;;2.72;;
13609;SDS011;6876;50.788;4.940;2023-10-19T09:00:26;11.70;;;2.30;;
13609;SDS011;6876;50.788;4.940;2023-10-19T09:03:20;11.27;;;2.40;;
13609;SDS011;6876;50.788;4.940;2023-10-19T09:06:07;9.73;;;2.33;;
13609;SDS011;6876;50.788;4.940;2023-10-19T09:08:57;8.18;;;2.30;;
13609;SDS011;6876;50.788;4.940;2023-10-19T09:11:45;7.72;;;2.30;;
13609;SDS011;6876;50.788;4.940;2023-10-19T09:14:33;9.93;;;2.38;;
13609;SDS011;6876;50.788;4.940;2023-10-19T09:17:31;9.52;;;2.92;;
13609;SDS011;6876;50.788;4.940;2023-10-19T09:20:20;10.32;;;2.33;;
13609;SDS011;6876;50.788;4.940;2023-10-19T09:23:12;10.43;;;2.50;;
13609;SDS011;6876;50.788;4.940;2023-10-19T09:26:01;10.88;;;2.85;;
13609;SDS011;6876;50.788;4.940;2023-10-19T09:28:51;9.88;;;2.47;;
13609;SDS011;6876;50.788;4.940;2023-10-19T09:31:39;9.20;;;2.67;;
13609;SDS011;6876;50.788;4.940;2023-10-19T09:34:28;9.85;;;2.05;;
13609;SDS011;6876;50.788;4.940;2023-10-19T09:37:19;8.55;;;2.58;;
13609;SDS011;6876;50.788;4.940;2023-10-19T09:40:08;18.35;;;3.55;;
13609;SDS011;6876;50.788;4.940;2023-10-19T09:42:58;5.65;;;2.28;;
13609;SDS011;6876;50.788;4.940;2023-10-19T09:45:50;9.57;;;2.22;;
13609;SDS011;6876;50.788;4.940;2023-10-19T09:48:40;10.30;;;2.47;;
13609;SDS011;6876;50.788;4.940;2023-10-19T09:51:29;9.07;;;2.85;;
13609;SDS011;6876;50.788;4.940;2023-10-19T09:54:20;11.05;;;2.85;;
13609;SDS011;6876;50.788;4.940;2023-10-19T09:57:14;11.50;;;3.30;;
13609;SDS011;6876;50.788;4.940;2023-10-19T10:00:08;11.15;;;2.63;;
13609;SDS011;6876;50.788;4.940;2023-10-19T10:02:58;7.43;;;2.70;;
13609;SDS011;6876;50.788;4.940;2023-10-19T10:05:48;7.43;;;2.67;;
13609;SDS011;6876;50.788;4.940;2023-10-19T10:08:36;9.35;;;2.60;;
13609;SDS011;6876;50.788;4.940;2023-10-19T10:11:25;11.57;;;2.63;;
13609;SDS011;6876;50.788;4.940;2023-10-19T10:14:19;9.30;;;1.95;;
13609;SDS011;6876;50.788;4.940;2023-10-19T10:17:10;10.60;;;2.75;;
13609;SDS011;6876;50.788;4.940;2023-10-19T10:23:17;9.65;;;2.53;;
13609;SDS011;6876;50.788;4.940;2023-10-19T10:26:08;8.05;;;2.13;;
13609;SDS011;6876;50.788;4.940;2023-10-19T10:29:09;7.85;;;2.30;;
13609;SDS011;6876;50.788;4.940;2023-10-19T10:31:58;8.00;;;2.08;;
13609;SDS011;6876;50.788;4.940;2023-10-19T10:34:46;7.05;;;2.20;;
13609;SDS011;6876;50.788;4.940;2023-10-19T10:37:36;9.05;;;2.50;;
13609;SDS011;6876;50.788;4.940;2023-10-19T10:40:25;12.32;;;3.30;;
13609;SDS011;6876;50.788;4.940;2023-10-19T10:43:14;8.52;;;2.65;;
13609;SDS011;6876;50.788;4.940;2023-10-19T10:46:02;8.55;;;3.47;;
13609;SDS011;6876;50.788;4.940;2023-10-19T10:48:51;11.48;;;3.85;;
13609;SDS011;6876;50.788;4.940;2023-10-19T10:51:39;9.40;;;3.90;;
13609;SDS011;6876;50.788;4.940;2023-10-19T10:54:27;9.82;;;3.65;;
13609;SDS011;6876;50.788;4.940;2023-10-19T10:57:14;7.72;;;3.20;;
13609;SDS011;6876;50.788;4.940;2023-10-19T11:00:04;13.38;;;4.25;;
13609;SDS011;6876;50.788;4.940;2023-10-19T11:03:00;11.82;;;3.85;;
13609;SDS011;6876;50.788;4.940;2023-10-19T11:05:49;11.82;;;3.60;;
13609;SDS011;6876;50.788;4.940;2023-10-19T11:08:37;9.20;;;2.92;;
13609;SDS011;6876;50.788;4.940;2023-10-19T11:11:25;6.93;;;2.88;;
13609;SDS011;6876;50.788;4.940;2023-10-19T11:14:12;7.50;;;2.25;;
13609;SDS011;6876;50.788;4.940;2023-10-19T11:17:12;9.13;;;2.28;;
13609;SDS011;6876;50.788;4.940;2023-10-19T11:20:00;7.20;;;2.05;;
13609;SDS011;6876;50.788;4.940;2023-10-19T11:22:50;6.85;;;2.10;;
13609;SDS011;6876;50.788;4.940;2023-10-19T11:25:38;6.75;;;2.65;;
13609;SDS011;6876;50.788;4.940;2023-10-19T11:28:26;8.70;;;2.80;;
13609;SDS011;6876;50.788;4.940;2023-10-19T11:31:15;4.70;;;2.20;;
13609;SDS011;6876;50.788;4.940;2023-10-19T11:34:06;7.82;;;2.45;;
13609;SDS011;6876;50.788;4.940;2023-10-19T11:36:54;6.65;;;2.22;;
13609;SDS011;6876;50.788;4.940;2023-10-19T11:39:45;9.40;;;2.25;;
13609;SDS011;6876;50.788;4.940;2023-10-19T11:42:32;9.07;;;2.50;;
13609;SDS011;6876;50.788;4.940;2023-10-19T11:45:19;6.65;;;2.00;;
13609;SDS011;6876;50.788;4.940;2023-10-19T11:48:07;6.80;;;1.70;;
13609;SDS011;6876;50.788;4.940;2023-10-19T11:50:56;4.82;;;1.95;;
13609;SDS011;6876;50.788;4.940;2023-10-19T11:53:43;11.38;;;2.00;;
13609;SDS011;6876;50.788;4.940;2023-10-19T11:56:31;9.18;;;1.90;;
13609;SDS011;6876;50.788;4.940;2023-10-19T11:59:18;6.88;;;1.75;;
13609;SDS011;6876;50.788;4.940;2023-10-19T12:02:05;7.85;;;1.98;;
13609;SDS011;6876;50.788;4.940;2023-10-19T12:04:55;6.65;;;1.92;;
13609;SDS011;6876;50.788;4.940;2023-10-19T12:07:44;4.55;;;1.50;;
13609;SDS011;6876;50.788;4.940;2023-10-19T12:10:31;4.65;;;1.20;;
13609;SDS011;6876;50.788;4.940;2023-10-19T12:13:20;5.35;;;1.42;;
13609;SDS011;6876;50.788;4.940;2023-10-19T12:16:09;6.93;;;1.97;;
13609;SDS011;6876;50.788;4.940;2023-10-19T12:18:58;6.43;;;1.63;;
13609;SDS011;6876;50.788;4.940;2023-10-19T12:21:45;5.93;;;1.53;;
13609;SDS011;6876;50.788;4.940;2023-10-19T12:24:36;4.43;;;1.67;;
13609;SDS011;6876;50.788;4.940;2023-10-19T12:27:24;3.90;;;1.50;;
13609;SDS011;6876;50.788;4.940;2023-10-19T12:30:12;4.53;;;1.73;;
13609;SDS011;6876;50.788;4.940;2023-10-19T12:33:05;5.30;;;1.47;;
13609;SDS011;6876;50.788;4.940;2023-10-19T12:35:57;5.70;;;1.47;;
13609;SDS011;6876;50.788;4.940;2023-10-19T12:38:45;2.83;;;1.27;;
13609;SDS011;6876;50.788;4.940;2023-10-19T12:41:35;5.10;;;1.10;;
13609;SDS011;6876;50.788;4.940;2023-10-19T12:44:24;3.37;;;0.97;;
13609;SDS011;6876;50.788;4.940;2023-10-19T12:47:14;2.28;;;1.20;;
13609;SDS011;6876;50.788;4.940;2023-10-19T12:50:03;4.38;;;1.17;;
13609;SDS011;6876;50.788;4.940;2023-10-19T12:52:52;4.30;;;1.40;;
13609;SDS011;6876;50.788;4.940;2023-10-19T12:55:41;3.67;;;1.10;;
13609;SDS011;6876;50.788;4.940;2023-10-19T12:58:31;3.03;;;1.37;;
13609;SDS011;6876;50.788;4.940;2023-10-19T13:01:18;4.22;;;1.50;;
13609;SDS011;6876;50.788;4.940;2023-10-19T13:04:06;2.95;;;1.10;;
13609;SDS011;6876;50.788;4.940;2023-10-19T13:07:02;4.35;;;1.20;;
13609;SDS011;6876;50.788;4.940;2023-10-19T13:09:49;3.42;;;1.23;;
13609;SDS011;6876;50.788;4.940;2023-10-19T13:12:36;2.83;;;1.30;;
13609;SDS011;6876;50.788;4.940;2023-10-19T13:15:25;4.68;;;1.15;;
13609;SDS011;6876;50.788;4.940;2023-10-19T13:18:16;4.43;;;1.20;;
13609;SDS011;6876;50.788;4.940;2023-10-19T13:21:06;5.72;;;1.25;;
13609;SDS011;6876;50.788;4.940;2023-10-19T13:23:57;4.25;;;1.33;;
13609;SDS011;6876;50.788;4.940;2023-10-19T13:26:44;3.05;;;1.08;;
13609;SDS011;6876;50.788;4.940;2023-10-19T13:29:32;2.22;;;1.00;;
13609;SDS011;6876;50.788;4.940;2023-10-19T13:32:25;1.73;;;1.10;;
13609;SDS011;6876;50.788;4.940;2023-10-19T13:35:15;3.10;;;1.10;;
13609;SDS011;6876;50.788;4.940;2023-10-19T13:38:03;2.95;;;1.08;;
13609;SDS011;6876;50.788;4.940;2023-10-19T13:40:51;1.75;;;1.00;;
13609;SDS011;6876;50.788;4.940;2023-10-19T13:43:39;2.53;;;1.10;;
13609;SDS011;6876;50.788;4.940;2023-10-19T13:46:27;2.17;;;1.10;;
13609;SDS011;6876;50.788;4.940;2023-10-19T13:49:17;3.55;;;2.65;;
13609;SDS011;6876;50.788;4.940;2023-10-19T13:52:04;1.67;;;0.90;;
13609;SDS011;6876;50.788;4.940;2023-10-19T13:54:54;2.42;;;1.17;;
13609;SDS011;6876;50.788;4.940;2023-10-19T13:57:41;2.47;;;1.20;;
13609;SDS011;6876;50.788;4.940;2023-10-19T14:00:29;2.47;;;1.20;;
13609;SDS011;6876;50.788;4.940;2023-10-19T14:03:21;2.70;;;1.30;;
13609;SDS011;6876;50.788;4.940;2023-10-19T14:06:12;1.70;;;1.00;;
13609;SDS011;6876;50.788;4.940;2023-10-19T14:09:00;1.48;;;1.10;;
13609;SDS011;6876;50.788;4.940;2023-10-19T14:11:50;1.60;;;1.40;;
13609;SDS011;6876;50.788;4.940;2023-10-19T14:14:38;2.58;;;1.63;;
13609;SDS011;6876;50.788;4.940;2023-10-19T14:17:26;1.98;;;0.88;;
13609;SDS011;6876;50.788;4.940;2023-10-19T14:20:14;2.22;;;0.93;;
13609;SDS011;6876;50.788;4.940;2023-10-19T14:23:06;2.38;;;0.80;;
13609;SDS011;6876;50.788;4.940;2023-10-19T14:25:54;2.17;;;0.75;;
13609;SDS011;6876;50.788;4.940;2023-10-19T14:28:41;4.13;;;1.10;;
13609;SDS011;6876;50.788;4.940;2023-10-19T14:31:28;2.05;;;0.90;;
13609;SDS011;6876;50.788;4.940;2023-10-19T14:34:16;1.95;;;0.80;;
13609;SDS011;6876;50.788;4.940;2023-10-19T14:37:03;1.92;;;0.80;;
13609;SDS011;6876;50.788;4.940;2023-10-19T14:39:52;1.70;;;0.93;;
13609;SDS011;6876;50.788;4.940;2023-10-19T14:42:40;1.05;;;0.63;;
13609;SDS011;6876;50.788;4.940;2023-10-19T14:45:28;2.30;;;1.10;;
13609;SDS011;6876;50.788;4.940;2023-10-19T14:48:15;2.40;;;0.73;;
13609;SDS011;6876;50.788;4.940;2023-10-19T14:51:04;1.42;;;0.80;;
13609;SDS011;6876;50.788;4.940;2023-10-19T14:53:52;1.30;;;1.00;;
13609;SDS011;6876;50.788;4.940;2023-10-19T14:56:41;0.95;;;0.77;;
13609;SDS011;6876;50.788;4.940;2023-10-19T14:59:29;2.67;;;1.05;;
13609;SDS011;6876;50.788;4.940;2023-10-19T15:02:19;1.30;;;0.82;;
13609;SDS011;6876;50.788;4.940;2023-10-19T15:05:08;3.30;;;0.80;;
13609;SDS011;6876;50.788;4.940;2023-10-19T15:07:58;0.93;;;0.50;;
13609;SDS011;6876;50.788;4.940;2023-10-19T15:10:46;1.77;;;0.75;;
13609;SDS011;6876;50.788;4.940;2023-10-19T15:13:35;1.52;;;0.75;;
13609;SDS011;6876;50.788;4.940;2023-10-19T15:16:22;1.05;;;0.60;;
13609;SDS011;6876;50.788;4.940;2023-10-19T15:19:10;1.20;;;0.63;;
13609;SDS011;6876;50.788;4.940;2023-10-19T15:22:00;2.20;;;0.55;;
13609;SDS011;6876;50.788;4.940;2023-10-19T15:24:50;1.13;;;0.77;;
13609;SDS011;6876;50.788;4.940;2023-10-19T15:27:38;1.95;;;0.77;;
13609;SDS011;6876;50.788;4.940;2023-10-19T15:30:28;3.03;;;0.70;;
13609;SDS011;6876;50.788;4.940;2023-10-19T15:33:15;1.58;;;0.80;;
13609;SDS011;6876;50.788;4.940;2023-10-19T15:36:03;1.83;;;0.80;;
13609;SDS011;6876;50.788;4.940;2023-10-19T15:38:52;1.92;;;0.90;;
13609;SDS011;6876;50.788;4.940;2023-10-19T15:41:39;2.58;;;1.00;;
13609;SDS011;6876;50.788;4.940;2023-10-19T15:44:26;2.38;;;0.80;;
13609;SDS011;6876;50.788;4.940;2023-10-19T15:47:17;0.93;;;0.70;;
13609;SDS011;6876;50.788;4.940;2023-10-19T15:50:06;2.80;;;0.90;;
13609;SDS011;6876;50.788;4.940;2023-10-19T15:52:55;2.78;;;1.10;;
13609;SDS011;6876;50.788;4.940;2023-10-19T15:55:42;1.77;;;0.93;;
13609;SDS011;6876;50.788;4.940;2023-10-19T15:58:30;2.10;;;1.00;;
13609;SDS011;6876;50.788;4.940;2023-10-19T16:01:17;2.92;;;1.30;;
13609;SDS011;6876;50.788;4.940;2023-10-19T16:04:06;1.60;;;1.08;;
13609;SDS011;6876;50.788;4.940;2023-10-19T16:06:54;2.92;;;0.98;;
13609;SDS011;6876;50.788;4.940;2023-10-19T16:09:42;3.20;;;1.42;;
13609;SDS011;6876;50.788;4.940;2023-10-19T16:12:29;5.82;;;1.60;;
13609;SDS011;6876;50.788;4.940;2023-10-19T16:15:17;3.78;;;1.58;;
13609;SDS011;6876;50.788;4.940;2023-10-19T16:18:05;2.00;;;1.30;;
13609;SDS011;6876;50.788;4.940;2023-10-19T16:20:54;2.17;;;1.50;;
13609;SDS011;6876;50.788;4.940;2023-10-19T16:23:41;3.25;;;1.80;;
13609;SDS011;6876;50.788;4.940;2023-10-19T16:26:28;2.63;;;1.55;;
13609;SDS011;6876;50.788;4.940;2023-10-19T16:29:16;3.33;;;1.85;;
13609;SDS011;6876;50.788;4.940;2023-10-19T16:32:03;4.15;;;1.80;;
13609;SDS011;6876;50.788;4.940;2023-10-19T16:34:54;2.30;;;2.10;;
13609;SDS011;6876;50.788;4.940;2023-10-19T16:37:43;3.55;;;2.20;;
13609;SDS011;6876;50.788;4.940;2023-10-19T16:40:33;3.20;;;2.50;;
13609;SDS011;6876;50.788;4.940;2023-10-19T16:43:20;4.50;;;2.75;;
13609;SDS011;6876;50.788;4.940;2023-10-19T16:46:07;3.22;;;2.95;;
13609;SDS011;6876;50.788;4.940;2023-10-19T16:48:55;2.95;;;2.70;;
13609;SDS011;6876;50.788;4.940;2023-10-19T16:51:43;3.03;;;2.80;;
13609;SDS011;6876;50.788;4.940;2023-10-19T16:54:33;5.73;;;3.17;;
13609;SDS011;6876;50.788;4.940;2023-10-19T16:57:20;3.67;;;2.90;;
13609;SDS011;6876;50.788;4.940;2023-10-19T17:00:08;6.17;;;2.90;;
13609;SDS011;6876;50.788;4.940;2023-10-19T17:02:58;3.20;;;2.80;;
13609;SDS011;6876;50.788;4.940;2023-10-19T17:05:46;4.78;;;3.67;;
13609;SDS011;6876;50.788;4.940;2023-10-19T17:08:33;3.50;;;3.20;;
13609;SDS011;6876;50.788;4.940;2023-10-19T17:11:22;3.83;;;3.40;;
13609;SDS011;6876;50.788;4.940;2023-10-19T17:14:10;3.73;;;3.43;;
13609;SDS011;6876;50.788;4.940;2023-10-19T17:16:57;4.00;;;3.60;;